Time;durP1;ratioP1;P1;durP2;ratioP2;P2;SDS_P1;SDS_P2;PMS_P1;PMS_P2;Temp;Humidity;BMP_temperature;BMP_pressure;BME280_temperature;BME280_humidity;BME280_pressure;Samples;Min_cycle;Max_cycle;Signal;HPM_P1;HPM_P2
2022/01/31 00:01:28;;;;;;;46.10;21.00;;;;;;;;;;5077256;28;20082;-75
2022/01/31 00:03:56;;;;;;;45.20;21.40;;;;;;;;;;5077245;28;20321;-76
2022/01/31 00:06:23;;;;;;;50.78;21.80;;;;;;;;;;5077170;28;20021;-75
2022/01/31 00:08:52;;;;;;;50.35;22.50;;;;;;;;;;5059465;28;20421;-76
2022/01/31 00:11:21;;;;;;;52.47;25.38;;;;;;;;;;5077067;28;20317;-75
2022/01/31 00:14:01;;;;;;;56.00;26.05;;;;;;;;;;5076981;28;20021;-76
2022/01/31 00:16:32;;;;;;;49.38;24.35;;;;;;;;;;5076877;28;20028;-75
2022/01/31 00:19:00;;;;;;;60.25;25.48;;;;;;;;;;5077000;28;20024;-75
2022/01/31 00:21:29;;;;;;;58.33;25.20;;;;;;;;;;5076964;28;20143;-75
2022/01/31 00:23:56;;;;;;;57.85;25.95;;;;;;;;;;5059071;28;20052;-75
2022/01/31 00:26:24;;;;;;;53.63;24.02;;;;;;;;;;5076722;28;20032;-75
2022/01/31 00:28:51;;;;;;;54.63;23.25;;;;;;;;;;5076157;28;20032;-75
2022/01/31 00:31:19;;;;;;;50.25;23.33;;;;;;;;;;5058824;28;20059;-75
2022/01/31 00:33:46;;;;;;;52.42;23.92;;;;;;;;;;5077766;28;20103;-75
2022/01/31 00:36:14;;;;;;;53.97;24.20;;;;;;;;;;5076533;28;20024;-75
2022/01/31 00:38:41;;;;;;;48.95;23.85;;;;;;;;;;5076494;28;20023;-75
2022/01/31 00:41:10;;;;;;;51.88;23.77;;;;;;;;;;5076368;28;20024;-74
2022/01/31 00:43:38;;;;;;;55.92;25.85;;;;;;;;;;5058597;28;20419;-74
2022/01/31 00:46:11;;;;;;;48.05;23.63;;;;;;;;;;5076497;28;20038;-74
2022/01/31 00:48:45;;;;;;;60.42;27.23;;;;;;;;;;5076376;28;20108;-74
2022/01/31 00:51:13;;;;;;;56.72;25.33;;;;;;;;;;5034456;28;20037;-75
2022/01/31 00:53:41;;;;;;;61.78;28.48;;;;;;;;;;5034417;28;20041;-75
2022/01/31 00:56:08;;;;;;;62.22;28.42;;;;;;;;;;5034454;28;20021;-75
2022/01/31 00:58:36;;;;;;;66.05;28.02;;;;;;;;;;5034389;28;20025;-75
2022/01/31 01:01:04;;;;;;;64.10;28.35;;;;;;;;;;5034416;28;20104;-75
2022/01/31 01:03:34;;;;;;;59.45;28.17;;;;;;;;;;5017729;28;20112;-74
2022/01/31 01:06:01;;;;;;;72.05;30.15;;;;;;;;;;5034294;28;20033;-75
2022/01/31 01:08:29;;;;;;;77.32;32.88;;;;;;;;;;5017707;28;20124;-75
2022/01/31 01:10:56;;;;;;;73.28;31.63;;;;;;;;;;5034184;28;20303;-75
2022/01/31 01:13:24;;;;;;;74.10;31.52;;;;;;;;;;5034122;28;20033;-75
2022/01/31 01:15:52;;;;;;;93.05;35.92;;;;;;;;;;5034258;28;20036;-75
2022/01/31 01:18:19;;;;;;;92.43;37.58;;;;;;;;;;5034216;28;20029;-75
2022/01/31 01:20:47;;;;;;;100.65;40.00;;;;;;;;;;5017602;28;20030;-75
2022/01/31 01:23:14;;;;;;;90.13;38.90;;;;;;;;;;5033991;28;20481;-75
2022/01/31 01:25:42;;;;;;;122.88;46.95;;;;;;;;;;5034130;28;20450;-76
2022/01/31 01:28:10;;;;;;;200.20;82.45;;;;;;;;;;5033986;28;20338;-75
2022/01/31 01:30:36;;;;;;;236.32;102.07;;;;;;;;;;5017257;28;20104;-72
2022/01/31 01:33:11;;;;;;;304.60;132.90;;;;;;;;;;5017245;28;20049;-79
2022/01/31 01:35:39;;;;;;;345.98;148.43;;;;;;;;;;5049816;28;20447;-79
2022/01/31 01:38:07;;;;;;;328.45;146.00;;;;;;;;;;5075713;28;20024;-74
2022/01/31 01:40:36;;;;;;;331.83;142.63;;;;;;;;;;5077793;28;20028;-74
2022/01/31 01:43:04;;;;;;;320.60;139.85;;;;;;;;;;5079884;28;20025;-73
2022/01/31 01:45:32;;;;;;;328.55;141.40;;;;;;;;;;5061953;28;20028;-72
2022/01/31 01:48:00;;;;;;;312.05;136.80;;;;;;;;;;5079740;28;20078;-73
2022/01/31 01:50:27;;;;;;;314.08;136.00;;;;;;;;;;5079734;28;20420;-73
2022/01/31 01:52:55;;;;;;;262.15;107.75;;;;;;;;;;5079693;28;20036;-73
2022/01/31 01:55:22;;;;;;;241.55;101.38;;;;;;;;;;5061815;28;20025;-73
2022/01/31 01:57:50;;;;;;;184.55;79.90;;;;;;;;;;5077430;28;20029;-73
2022/01/31 02:00:26;;;;;;;198.93;83.85;;;;;;;;;;5079333;28;20016;-70
2022/01/31 02:02:55;;;;;;;209.25;91.80;;;;;;;;;;5079099;28;20044;-70
2022/01/31 02:05:23;;;;;;;205.85;91.22;;;;;;;;;;5079049;28;20425;-75
2022/01/31 02:07:51;;;;;;;230.45;101.05;;;;;;;;;;5061089;28;20039;-72
2022/01/31 02:10:18;;;;;;;251.35;104.63;;;;;;;;;;5060773;28;20050;-69
2022/01/31 02:12:49;;;;;;;314.63;132.77;;;;;;;;;;5068272;28;20036;-73
2022/01/31 02:15:18;;;;;;;386.75;165.35;;;;;;;;;;5058939;28;20020;-74
2022/01/31 02:17:45;;;;;;;304.38;125.90;;;;;;;;;;5058852;28;20574;-77
2022/01/31 02:20:13;;;;;;;291.30;119.03;;;;;;;;;;5058814;28;20025;-77
2022/01/31 02:22:40;;;;;;;370.50;184.43;;;;;;;;;;5058798;28;20029;-77
2022/01/31 02:25:09;;;;;;;289.25;118.75;;;;;;;;;;5041025;28;20341;-76
2022/01/31 02:27:37;;;;;;;317.38;129.45;;;;;;;;;;5058680;28;20044;-75
2022/01/31 02:30:06;;;;;;;297.60;124.60;;;;;;;;;;5058288;28;20123;-75
2022/01/31 02:32:34;;;;;;;264.15;110.82;;;;;;;;;;5058352;28;20025;-76
2022/01/31 02:35:01;;;;;;;222.60;87.63;;;;;;;;;;5040754;28;20070;-76
2022/01/31 02:37:29;;;;;;;266.35;95.82;;;;;;;;;;5058414;28;20318;-76
2022/01/31 02:39:56;;;;;;;310.17;119.72;;;;;;;;;;5040592;28;20025;-76
2022/01/31 02:42:24;;;;;;;289.95;104.93;;;;;;;;;;5040807;28;20028;-76
2022/01/31 02:44:52;;;;;;;281.02;103.50;;;;;;;;;;5058282;28;20154;-75
2022/01/31 02:47:28;;;;;;;301.88;107.07;;;;;;;;;;5058354;28;20477;-75
2022/01/31 02:52:27;;;;;;;343.35;118.03;;;;;;;;;;5057655;28;20706;-76
2022/01/31 02:54:54;;;;;;;310.40;109.93;;;;;;;;;;5058109;28;20013;-74
2022/01/31 02:57:22;;;;;;;302.92;106.10;;;;;;;;;;5057748;28;20025;-71
2022/01/31 02:59:50;;;;;;;298.35;105.55;;;;;;;;;;5040326;28;20086;-72
2022/01/31 03:02:18;;;;;;;330.67;113.18;;;;;;;;;;5040068;28;20021;-73
2022/01/31 03:04:45;;;;;;;331.30;109.35;;;;;;;;;;5057911;28;20025;-70
2022/01/31 03:07:13;;;;;;;300.98;100.30;;;;;;;;;;5040120;28;20029;-73
2022/01/31 03:09:41;;;;;;;307.95;104.05;;;;;;;;;;5040142;28;20021;-75
2022/01/31 03:12:09;;;;;;;300.40;105.13;;;;;;;;;;5057714;28;20029;-75
2022/01/31 03:14:38;;;;;;;288.63;103.25;;;;;;;;;;5068497;28;20093;-73
2022/01/31 03:17:06;;;;;;;274.25;99.55;;;;;;;;;;5060934;28;20017;-72
2022/01/31 03:19:37;;;;;;;280.58;99.82;;;;;;;;;;5057348;28;20017;-74
2022/01/31 03:22:06;;;;;;;271.83;97.47;;;;;;;;;;5057406;28;20027;-81
2022/01/31 03:24:34;;;;;;;280.27;103.47;;;;;;;;;;5057552;28;20040;-77
2022/01/31 03:27:02;;;;;;;274.02;101.35;;;;;;;;;;5039678;28;20021;-79
2022/01/31 03:29:29;;;;;;;278.60;96.50;;;;;;;;;;5039473;28;20402;-77
2022/01/31 03:31:56;;;;;;;274.27;95.40;;;;;;;;;;5062661;28;20094;-77
2022/01/31 03:34:25;;;;;;;272.92;96.60;;;;;;;;;;5059751;28;20123;-72
2022/01/31 03:36:53;;;;;;;295.15;107.47;;;;;;;;;;5077224;28;20024;-77
2022/01/31 03:39:21;;;;;;;291.17;107.57;;;;;;;;;;5077234;28;20024;-75
2022/01/31 03:41:48;;;;;;;292.23;96.88;;;;;;;;;;5077356;28;20103;-67
2022/01/31 03:44:16;;;;;;;307.17;102.65;;;;;;;;;;5077235;28;20031;-69
2022/01/31 03:46:43;;;;;;;306.20;101.15;;;;;;;;;;5055958;28;20024;-71
2022/01/31 03:49:11;;;;;;;304.75;100.60;;;;;;;;;;5068327;28;20028;-74
2022/01/31 03:51:39;;;;;;;295.50;100.80;;;;;;;;;;5077116;28;20324;-78
2022/01/31 03:54:06;;;;;;;329.52;105.97;;;;;;;;;;5063418;28;20075;-72
2022/01/31 03:56:35;;;;;;;290.20;98.80;;;;;;;;;;5056892;28;20437;-74
2022/01/31 03:59:03;;;;;;;292.00;99.57;;;;;;;;;;5039145;28;20083;-74
2022/01/31 04:01:31;;;;;;;293.38;95.78;;;;;;;;;;5038993;28;20021;-73
2022/01/31 04:03:58;;;;;;;280.30;90.82;;;;;;;;;;5038200;28;20195;-70
2022/01/31 04:06:26;;;;;;;275.65;92.25;;;;;;;;;;5071142;28;20025;-72
2022/01/31 04:08:53;;;;;;;314.83;105.78;;;;;;;;;;5076497;28;20050;-71
2022/01/31 04:11:21;;;;;;;325.05;108.68;;;;;;;;;;5076803;28;20159;-72
2022/01/31 04:13:49;;;;;;;307.70;101.70;;;;;;;;;;5076610;28;20426;-74
2022/01/31 04:16:16;;;;;;;297.00;100.28;;;;;;;;;;5076532;28;20048;-71
2022/01/31 04:18:44;;;;;;;329.25;105.97;;;;;;;;;;5058697;28;20020;-73
2022/01/31 04:21:12;;;;;;;299.88;99.38;;;;;;;;;;5058621;28;20058;-73
2022/01/31 04:23:40;;;;;;;279.77;91.72;;;;;;;;;;5058529;28;20028;-75
2022/01/31 04:26:13;;;;;;;297.10;94.70;;;;;;;;;;5059231;28;20121;-73
2022/01/31 04:28:46;;;;;;;264.48;89.97;;;;;;;;;;5076394;28;20021;-74
2022/01/31 04:31:36;;;;;;;268.58;88.00;;;;;;;;;;5058535;28;20377;-73
2022/01/31 04:34:02;;;;;;;280.05;93.15;;;;;;;;;;5076138;28;20060;-74
2022/01/31 04:36:30;;;;;;;290.88;99.35;;;;;;;;;;5076185;28;20078;-73
2022/01/31 04:38:57;;;;;;;296.25;110.60;;;;;;;;;;5058544;28;20017;-71
2022/01/31 04:41:25;;;;;;;317.08;109.85;;;;;;;;;;5056277;28;20025;-73
2022/01/31 04:43:55;;;;;;;290.00;102.63;;;;;;;;;;5038424;28;20037;-71
2022/01/31 04:46:23;;;;;;;275.98;99.65;;;;;;;;;;5056039;28;20326;-75
2022/01/31 04:48:51;;;;;;;269.95;90.80;;;;;;;;;;5038097;28;20028;-74
2022/01/31 04:51:18;;;;;;;264.55;93.90;;;;;;;;;;5055975;28;20021;-72
2022/01/31 04:53:46;;;;;;;303.63;106.03;;;;;;;;;;5038230;28;20032;-73
2022/01/31 04:56:14;;;;;;;280.55;96.50;;;;;;;;;;5055745;28;20025;-73
2022/01/31 04:58:41;;;;;;;283.27;100.70;;;;;;;;;;5055722;28;20032;-76
2022/01/31 05:01:09;;;;;;;272.83;96.22;;;;;;;;;;5055681;28;20025;-76
2022/01/31 05:03:37;;;;;;;283.23;105.25;;;;;;;;;;5037977;28;20039;-76
2022/01/31 05:06:05;;;;;;;331.50;125.43;;;;;;;;;;5055852;28;20028;-76
2022/01/31 05:08:35;;;;;;;299.25;112.22;;;;;;;;;;5038072;28;20063;-77
2022/01/31 05:11:05;;;;;;;269.60;98.03;;;;;;;;;;5037961;28;20330;-74
2022/01/31 05:13:33;;;;;;;304.10;104.72;;;;;;;;;;5055324;28;20021;-71
2022/01/31 05:16:00;;;;;;;267.38;94.15;;;;;;;;;;5055187;28;20055;-72
2022/01/31 05:18:28;;;;;;;276.90;98.15;;;;;;;;;;5055563;28;20349;-70
2022/01/31 05:20:55;;;;;;;269.92;97.18;;;;;;;;;;5037750;28;20025;-72
2022/01/31 05:23:23;;;;;;;266.42;94.43;;;;;;;;;;5037662;28;20082;-73
2022/01/31 05:25:50;;;;;;;268.05;97.85;;;;;;;;;;5055550;28;20037;-69
2022/01/31 05:28:18;;;;;;;283.98;103.53;;;;;;;;;;5055597;28;20025;-68
2022/01/31 05:30:44;;;;;;;304.13;108.50;;;;;;;;;;5055170;28;20101;-69
2022/01/31 05:33:10;;;;;;;298.17;106.82;;;;;;;;;;5037644;28;20094;-68
2022/01/31 05:35:38;;;;;;;287.70;102.55;;;;;;;;;;5055458;28;20031;-68
2022/01/31 05:38:06;;;;;;;292.27;101.82;;;;;;;;;;5037650;28;20031;-68
2022/01/31 05:40:34;;;;;;;281.92;98.30;;;;;;;;;;5055445;28;20433;-68
2022/01/31 05:43:01;;;;;;;290.80;109.28;;;;;;;;;;5055437;28;20029;-68
2022/01/31 05:45:29;;;;;;;289.77;103.57;;;;;;;;;;5055213;28;20102;-68
2022/01/31 05:47:56;;;;;;;293.35;105.40;;;;;;;;;;5055353;28;20033;-68
2022/01/31 05:50:24;;;;;;;274.13;100.53;;;;;;;;;;5037596;28;20025;-68
2022/01/31 05:52:52;;;;;;;312.52;115.97;;;;;;;;;;5055015;28;20432;-68
2022/01/31 05:55:19;;;;;;;284.08;105.00;;;;;;;;;;5037542;28;20029;-68
2022/01/31 05:57:47;;;;;;;320.60;113.00;;;;;;;;;;5055071;28;20021;-68
2022/01/31 06:00:15;;;;;;;290.08;104.03;;;;;;;;;;5054782;28;20039;-68
2022/01/31 06:02:42;;;;;;;287.67;104.00;;;;;;;;;;5055137;28;20039;-72
2022/01/31 06:05:10;;;;;;;305.40;108.90;;;;;;;;;;5055225;28;20108;-68
2022/01/31 06:07:38;;;;;;;300.50;107.22;;;;;;;;;;5037231;28;20120;-68
2022/01/31 06:10:06;;;;;;;284.95;103.13;;;;;;;;;;5054748;28;20025;-68
2022/01/31 06:12:37;;;;;;;321.73;116.28;;;;;;;;;;5054757;28;20035;-68
2022/01/31 06:15:05;;;;;;;299.52;110.25;;;;;;;;;;5054749;28;20017;-68
2022/01/31 06:17:32;;;;;;;342.73;115.07;;;;;;;;;;5037413;28;20047;-68
2022/01/31 06:20:00;;;;;;;328.05;119.07;;;;;;;;;;5054978;28;20101;-68
2022/01/31 06:22:27;;;;;;;329.77;113.85;;;;;;;;;;5054826;28;20025;-68
2022/01/31 06:24:54;;;;;;;361.75;126.43;;;;;;;;;;5054888;28;20024;-68
2022/01/31 06:27:22;;;;;;;342.15;122.03;;;;;;;;;;5057732;28;20036;-68
2022/01/31 06:29:48;;;;;;;321.75;111.53;;;;;;;;;;5058302;28;20140;-67
2022/01/31 06:32:15;;;;;;;337.40;115.05;;;;;;;;;;5040821;28;20029;-68
2022/01/31 06:34:42;;;;;;;354.30;122.40;;;;;;;;;;5058659;28;20079;-67
2022/01/31 06:37:10;;;;;;;312.10;111.43;;;;;;;;;;5055223;28;20090;-67
2022/01/31 06:39:38;;;;;;;331.48;114.65;;;;;;;;;;5060499;28;20028;-69
2022/01/31 06:42:06;;;;;;;317.13;110.45;;;;;;;;;;5078161;28;20032;-69
2022/01/31 06:44:36;;;;;;;335.33;119.30;;;;;;;;;;5077942;28;20021;-69
2022/01/31 06:47:06;;;;;;;321.73;111.97;;;;;;;;;;5078201;28;20040;-68
2022/01/31 06:49:34;;;;;;;325.65;110.95;;;;;;;;;;5062551;28;20326;-68
2022/01/31 06:52:04;;;;;;;333.88;117.15;;;;;;;;;;5079646;28;20099;-68
2022/01/31 06:54:32;;;;;;;334.77;115.63;;;;;;;;;;5097756;28;20031;-69
2022/01/31 06:57:01;;;;;;;320.98;112.50;;;;;;;;;;5078524;28;20039;-69
2022/01/31 06:59:28;;;;;;;313.67;110.45;;;;;;;;;;5078598;28;20025;-68
2022/01/31 07:01:56;;;;;;;330.45;111.68;;;;;;;;;;5055850;28;20027;-69
2022/01/31 07:04:23;;;;;;;331.70;113.53;;;;;;;;;;5056045;28;20085;-69
2022/01/31 07:06:51;;;;;;;324.15;111.88;;;;;;;;;;5056428;28;20440;-68
2022/01/31 07:09:18;;;;;;;340.13;116.68;;;;;;;;;;5059217;28;20070;-68
2022/01/31 07:11:49;;;;;;;349.67;116.88;;;;;;;;;;5076925;28;20073;-68
2022/01/31 07:14:30;;;;;;;312.70;110.70;;;;;;;;;;5076828;28;20039;-68
2022/01/31 07:16:58;;;;;;;325.42;110.10;;;;;;;;;;5077373;28;20321;-68
2022/01/31 07:19:29;;;;;;;307.85;105.70;;;;;;;;;;5077193;28;20082;-72
2022/01/31 07:21:57;;;;;;;352.05;112.65;;;;;;;;;;5077346;28;20027;-70
2022/01/31 07:24:32;;;;;;;381.25;118.70;;;;;;;;;;5075984;28;20051;-70
2022/01/31 07:26:59;;;;;;;367.17;114.85;;;;;;;;;;5076986;28;20025;-71
2022/01/31 07:29:26;;;;;;;374.45;115.45;;;;;;;;;;5085029;28;20054;-72
2022/01/31 07:32:02;;;;;;;364.70;116.78;;;;;;;;;;5085234;28;20021;-72
2022/01/31 07:34:30;;;;;;;402.42;131.48;;;;;;;;;;5058808;28;20048;-71
2022/01/31 07:36:58;;;;;;;358.33;113.88;;;;;;;;;;5056949;28;20024;-71
2022/01/31 07:39:26;;;;;;;362.67;114.80;;;;;;;;;;5082085;28;20107;-72
2022/01/31 07:41:54;;;;;;;362.42;111.80;;;;;;;;;;5076577;28;20048;-71
2022/01/31 07:44:21;;;;;;;348.67;114.60;;;;;;;;;;5058764;28;20024;-71
2022/01/31 07:46:49;;;;;;;353.15;117.78;;;;;;;;;;5076534;28;20112;-74
2022/01/31 07:49:16;;;;;;;329.63;112.82;;;;;;;;;;5057217;28;20375;-75
2022/01/31 07:51:44;;;;;;;316.38;112.28;;;;;;;;;;5038607;28;20071;-75
2022/01/31 07:54:12;;;;;;;324.15;106.63;;;;;;;;;;5038667;28;20368;-76
2022/01/31 07:56:39;;;;;;;323.40;110.25;;;;;;;;;;5056450;28;20017;-74
2022/01/31 07:59:07;;;;;;;347.05;116.20;;;;;;;;;;5056038;28;20029;-74
2022/01/31 08:01:34;;;;;;;336.95;115.07;;;;;;;;;;5056500;28;20092;-76
2022/01/31 08:04:02;;;;;;;313.15;110.25;;;;;;;;;;5062706;28;20032;-73
2022/01/31 08:06:29;;;;;;;325.70;109.43;;;;;;;;;;5058406;28;20131;-73
2022/01/31 08:08:57;;;;;;;306.13;107.78;;;;;;;;;;5058189;28;20336;-73
2022/01/31 08:11:30;;;;;;;319.15;112.82;;;;;;;;;;5033833;28;20057;-74
2022/01/31 08:14:01;;;;;;;302.08;104.28;;;;;;;;;;5017319;28;20030;-74
2022/01/31 08:16:29;;;;;;;309.92;104.82;;;;;;;;;;5033574;28;20040;-75
2022/01/31 08:18:57;;;;;;;308.27;106.72;;;;;;;;;;5017233;28;20095;-75
2022/01/31 08:21:24;;;;;;;298.75;103.55;;;;;;;;;;5033668;28;20482;-76
2022/01/31 08:23:53;;;;;;;293.65;101.22;;;;;;;;;;5033581;28;20056;-73
2022/01/31 08:26:21;;;;;;;302.48;103.45;;;;;;;;;;5034255;28;20037;-74
2022/01/31 08:31:37;;;;;;;312.35;109.25;;;;;;;;;;5024159;28;20146;-71
2022/01/31 08:36:44;;;;;;;308.02;103.90;;;;;;;;;;5021091;28;20037;-72
2022/01/31 08:39:17;;;;;;;300.25;102.20;;;;;;;;;;5029488;28;20533;-71
2022/01/31 08:41:46;;;;;;;298.75;103.78;;;;;;;;;;5029730;28;20048;-70
2022/01/31 08:44:18;;;;;;;282.70;99.13;;;;;;;;;;5052874;28;20104;-70
2022/01/31 08:46:46;;;;;;;274.23;97.30;;;;;;;;;;5057255;28;20028;-73
2022/01/31 08:49:14;;;;;;;277.42;97.32;;;;;;;;;;5074958;28;20035;-72
2022/01/31 08:51:43;;;;;;;273.60;93.63;;;;;;;;;;5075240;28;20314;-70
2022/01/31 08:54:12;;;;;;;291.48;100.97;;;;;;;;;;5075085;28;20059;-71
2022/01/31 08:56:43;;;;;;;284.33;96.00;;;;;;;;;;5079558;28;20024;-71
2022/01/31 08:59:13;;;;;;;281.27;99.18;;;;;;;;;;5084492;28;20020;-71
2022/01/31 09:01:41;;;;;;;283.13;99.95;;;;;;;;;;5077203;28;20096;-75
2022/01/31 09:04:09;;;;;;;269.83;97.07;;;;;;;;;;5095470;28;20103;-71
2022/01/31 09:06:37;;;;;;;263.77;95.43;;;;;;;;;;5095262;28;20028;-72
2022/01/31 09:09:08;;;;;;;289.73;102.68;;;;;;;;;;5071270;28;20025;-72
2022/01/31 09:11:37;;;;;;;313.20;109.75;;;;;;;;;;5095215;28;20416;-71
2022/01/31 09:14:05;;;;;;;307.17;108.85;;;;;;;;;;5077356;28;20325;-70
2022/01/31 09:16:32;;;;;;;316.25;115.30;;;;;;;;;;5095492;28;20024;-76
2022/01/31 09:19:00;;;;;;;334.98;117.82;;;;;;;;;;5095456;28;20049;-68
2022/01/31 09:21:28;;;;;;;338.02;120.57;;;;;;;;;;5077376;28;20020;-71
2022/01/31 09:23:56;;;;;;;324.67;120.32;;;;;;;;;;5095397;28;20050;-73
2022/01/31 09:26:28;;;;;;;324.92;121.97;;;;;;;;;;5077072;28;20047;-69
2022/01/31 09:28:55;;;;;;;334.55;123.00;;;;;;;;;;5095213;28;20028;-71
2022/01/31 09:31:23;;;;;;;341.33;125.20;;;;;;;;;;5094817;28;20072;-71
2022/01/31 09:33:51;;;;;;;340.63;119.53;;;;;;;;;;5095225;28;20047;-68
2022/01/31 09:36:18;;;;;;;321.45;121.00;;;;;;;;;;5077277;28;20436;-71
2022/01/31 09:38:46;;;;;;;336.63;121.57;;;;;;;;;;5095021;28;20032;-71
2022/01/31 09:41:19;;;;;;;309.63;118.68;;;;;;;;;;5094801;28;20019;-71
2022/01/31 09:48:49;;;;;;;323.05;116.97;;;;;;;;;;5095258;28;20054;-69
2022/01/31 09:51:20;;;;;;;319.00;116.15;;;;;;;;;;5094880;28;20024;-74
2022/01/31 09:53:58;;;;;;;315.65;111.60;;;;;;;;;;5072793;28;20020;-72
2022/01/31 09:56:37;;;;;;;309.85;106.38;;;;;;;;;;5091744;28;20024;-70
2022/01/31 09:59:07;;;;;;;290.17;105.00;;;;;;;;;;5076159;28;20044;-72
2022/01/31 10:01:47;;;;;;;289.95;101.05;;;;;;;;;;5096498;28;20409;-71
2022/01/31 10:04:18;;;;;;;276.40;101.15;;;;;;;;;;5098991;28;20466;-69
2022/01/31 10:06:49;;;;;;;252.50;93.05;;;;;;;;;;5099098;28;20031;-69
2022/01/31 10:09:36;;;;;;;243.27;91.28;;;;;;;;;;5099166;28;20020;-69
2022/01/31 10:17:42;;;;;;;200.90;81.78;;;;;;;;;;5099103;28;20040;-71
2022/01/31 10:20:25;;;;;;;198.15;78.78;;;;;;;;;;5098749;28;20032;-71
2022/01/31 10:22:53;;;;;;;194.38;79.35;;;;;;;;;;5098698;28;20016;-71
2022/01/31 10:25:21;;;;;;;191.48;75.70;;;;;;;;;;5098598;28;20028;-72
2022/01/31 10:27:53;;;;;;;190.60;76.97;;;;;;;;;;5098675;28;20047;-71
2022/01/31 10:30:27;;;;;;;204.50;82.38;;;;;;;;;;5098237;28;20561;-72
2022/01/31 10:32:54;;;;;;;204.20;82.80;;;;;;;;;;5098296;28;20036;-71
2022/01/31 10:35:28;;;;;;;177.55;71.55;;;;;;;;;;5098338;28;20042;-71
2022/01/31 10:38:02;;;;;;;200.77;79.15;;;;;;;;;;5098336;28;20054;-69
2022/01/31 10:46:10;;;;;;;244.90;95.50;;;;;;;;;;5077957;28;20444;-72
2022/01/31 10:51:59;;;;;;;237.00;86.80;;;;;;;;;;5078385;28;20039;-72
2022/01/31 10:57:19;;;;;;;251.48;93.18;;;;;;;;;;5078194;28;20017;-71
2022/01/31 10:59:47;;;;;;;268.67;98.25;;;;;;;;;;5077959;28;20083;-71
2022/01/31 11:02:18;;;;;;;269.33;99.40;;;;;;;;;;5077760;28;20048;-70
2022/01/31 11:04:45;;;;;;;275.02;101.22;;;;;;;;;;5060102;28;20021;-70
2022/01/31 11:07:17;;;;;;;268.40;98.30;;;;;;;;;;5077925;28;20025;-69
2022/01/31 11:09:49;;;;;;;281.05;99.80;;;;;;;;;;5060191;28;20116;-71
2022/01/31 11:12:19;;;;;;;284.42;106.07;;;;;;;;;;5077594;28;20348;-70
2022/01/31 11:14:50;;;;;;;265.58;98.47;;;;;;;;;;5078049;28;20089;-70
2022/01/31 11:17:18;;;;;;;276.35;98.10;;;;;;;;;;5078086;28;20028;-70
2022/01/31 11:19:49;;;;;;;269.77;95.03;;;;;;;;;;5078071;28;20195;-70
2022/01/31 11:22:17;;;;;;;261.55;94.07;;;;;;;;;;5077972;28;20066;-70
2022/01/31 11:24:49;;;;;;;258.38;91.28;;;;;;;;;;5077902;28;20040;-71
2022/01/31 11:27:18;;;;;;;251.27;93.25;;;;;;;;;;5059908;28;20111;-70
2022/01/31 11:29:55;;;;;;;269.65;96.20;;;;;;;;;;5056225;28;20361;-69
2022/01/31 11:32:22;;;;;;;258.30;95.10;;;;;;;;;;5057316;28;20021;-70
2022/01/31 11:34:53;;;;;;;248.50;90.55;;;;;;;;;;5057615;28;20029;-70
2022/01/31 11:37:22;;;;;;;265.02;94.65;;;;;;;;;;5056996;28;20025;-70
2022/01/31 11:40:02;;;;;;;269.77;94.75;;;;;;;;;;5057094;28;20036;-70
2022/01/31 11:42:31;;;;;;;268.67;96.05;;;;;;;;;;5057304;28;20024;-70
2022/01/31 11:45:03;;;;;;;269.75;96.13;;;;;;;;;;5057109;28;20021;-70
2022/01/31 11:47:33;;;;;;;258.08;89.95;;;;;;;;;;5056977;28;20108;-70
2022/01/31 11:50:05;;;;;;;271.88;93.03;;;;;;;;;;5056672;28;20108;-70
2022/01/31 11:52:44;;;;;;;260.13;91.47;;;;;;;;;;5055383;28;20104;-70
2022/01/31 11:55:19;;;;;;;255.65;92.47;;;;;;;;;;5056988;28;20041;-70
2022/01/31 11:57:51;;;;;;;262.02;94.47;;;;;;;;;;5056666;28;20020;-70
2022/01/31 12:00:22;;;;;;;260.15;92.18;;;;;;;;;;5055472;28;20021;-69
2022/01/31 12:02:55;;;;;;;258.25;92.03;;;;;;;;;;5056506;28;20086;-69
2022/01/31 12:05:23;;;;;;;258.83;95.13;;;;;;;;;;5056516;28;20056;-70
2022/01/31 12:08:05;;;;;;;251.05;92.57;;;;;;;;;;5056423;28;20028;-70
2022/01/31 12:10:41;;;;;;;250.60;93.72;;;;;;;;;;5056364;28;20031;-68
2022/01/31 12:13:29;;;;;;;242.75;87.75;;;;;;;;;;5056572;28;20021;-69
2022/01/31 12:24:07;;;;;;;307.27;106.95;;;;;;;;;;5055928;28;20032;-67
2022/01/31 12:26:37;;;;;;;286.52;107.50;;;;;;;;;;5056299;28;20021;-68
2022/01/31 12:29:13;;;;;;;267.08;99.05;;;;;;;;;;5055674;28;20322;-69
2022/01/31 12:31:54;;;;;;;256.05;96.68;;;;;;;;;;5075841;28;20378;-69
2022/01/31 12:34:24;;;;;;;289.40;109.78;;;;;;;;;;5076276;28;20421;-69
2022/01/31 12:36:56;;;;;;;350.35;135.60;;;;;;;;;;5058230;28;20041;-68
2022/01/31 12:39:37;;;;;;;307.95;111.45;;;;;;;;;;5076096;28;20024;-68
2022/01/31 12:42:42;;;;;;;302.05;113.10;;;;;;;;;;5075999;28;20279;-68
2022/01/31 12:45:25;;;;;;;333.77;124.65;;;;;;;;;;4994713;28;20042;-69
2022/01/31 12:48:10;;;;;;;334.88;124.32;;;;;;;;;;4978380;28;20129;-68
2022/01/31 12:50:51;;;;;;;384.70;125.60;;;;;;;;;;4994629;28;20057;-68
2022/01/31 12:53:29;;;;;;;283.70;99.22;;;;;;;;;;4977940;28;20444;-68
2022/01/31 12:56:40;;;;;;;287.83;103.82;;;;;;;;;;4978093;28;20026;-69
2022/01/31 12:59:11;;;;;;;263.90;99.13;;;;;;;;;;4992426;28;20057;-70
2022/01/31 13:01:40;;;;;;;278.67;104.32;;;;;;;;;;4978672;28;20027;-69
2022/01/31 13:04:24;;;;;;;252.48;101.55;;;;;;;;;;4977741;28;20026;-69
2022/01/31 13:09:45;;;;;;;263.25;97.63;;;;;;;;;;4988683;28;20022;-68
2022/01/31 13:12:17;;;;;;;301.48;115.47;;;;;;;;;;4977895;28;20034;-69
2022/01/31 13:14:49;;;;;;;270.02;101.97;;;;;;;;;;4978037;28;20535;-68
2022/01/31 13:17:20;;;;;;;266.45;101.70;;;;;;;;;;4993912;28;20030;-67
2022/01/31 13:19:52;;;;;;;276.00;105.22;;;;;;;;;;4994323;28;20022;-69
2022/01/31 13:22:30;;;;;;;288.23;115.45;;;;;;;;;;5047988;28;20029;-72
2022/01/31 13:25:03;;;;;;;268.70;99.88;;;;;;;;;;5075520;28;20028;-69
2022/01/31 13:27:34;;;;;;;247.30;91.68;;;;;;;;;;5075750;28;20028;-70
2022/01/31 13:30:01;;;;;;;257.50;93.63;;;;;;;;;;5054119;28;20449;-69
2022/01/31 13:32:36;;;;;;;251.50;90.90;;;;;;;;;;5055618;28;20409;-68
2022/01/31 13:35:17;;;;;;;261.83;96.43;;;;;;;;;;5057202;28;20087;-69
2022/01/31 13:38:07;;;;;;;266.92;94.95;;;;;;;;;;5062189;28;20017;-69
2022/01/31 13:40:37;;;;;;;279.95;101.03;;;;;;;;;;5061218;28;20270;-69
2022/01/31 13:43:25;;;;;;;269.92;97.65;;;;;;;;;;5062092;28;20078;-69
2022/01/31 13:49:09;;;;;;;321.48;116.80;;;;;;;;;;5061876;28;20118;-69
2022/01/31 13:51:45;;;;;;;348.17;122.80;;;;;;;;;;5061821;28;20029;-70
2022/01/31 13:54:18;;;;;;;313.52;108.93;;;;;;;;;;5060567;28;20108;-70
2022/01/31 13:56:56;;;;;;;303.88;112.75;;;;;;;;;;5060716;28;20032;-70
2022/01/31 13:59:25;;;;;;;319.73;111.13;;;;;;;;;;5060656;28;20025;-69
2022/01/31 14:02:13;;;;;;;306.20;108.38;;;;;;;;;;5060709;28;20025;-69
2022/01/31 14:04:41;;;;;;;311.83;107.13;;;;;;;;;;5060738;28;20095;-69
2022/01/31 14:07:29;;;;;;;335.08;117.60;;;;;;;;;;5061786;28;20120;-70
2022/01/31 14:09:56;;;;;;;350.42;114.25;;;;;;;;;;5060578;28;20028;-70
2022/01/31 14:12:28;;;;;;;328.48;107.57;;;;;;;;;;5061683;28;20017;-70
2022/01/31 14:14:56;;;;;;;337.17;116.32;;;;;;;;;;5060381;28;20106;-70
2022/01/31 14:17:27;;;;;;;340.40;118.03;;;;;;;;;;5060353;28;20303;-70
2022/01/31 14:19:55;;;;;;;297.67;105.00;;;;;;;;;;5061501;28;20025;-71
2022/01/31 14:22:28;;;;;;;280.77;99.70;;;;;;;;;;5061655;28;20043;-72
2022/01/31 14:25:07;;;;;;;273.23;96.82;;;;;;;;;;5061739;28;20328;-73
2022/01/31 14:27:35;;;;;;;309.73;104.25;;;;;;;;;;5061869;28;20074;-73
2022/01/31 14:30:02;;;;;;;308.95;106.80;;;;;;;;;;5068735;28;20384;-72
2022/01/31 14:32:32;;;;;;;295.95;99.32;;;;;;;;;;5063766;28;20027;-70
2022/01/31 14:35:06;;;;;;;299.75;104.38;;;;;;;;;;5063949;28;20033;-70
2022/01/31 14:37:35;;;;;;;287.20;97.40;;;;;;;;;;5081704;28;20012;-70
2022/01/31 14:40:20;;;;;;;292.33;97.60;;;;;;;;;;5039610;28;20057;-70
2022/01/31 14:47:12;;;;;;;311.70;109.10;;;;;;;;;;5039616;28;20049;-70
2022/01/31 14:48:55;;;;;;;316.02;109.97;;;;;;;;;;4977704;28;20157;-70
2022/01/31 14:51:28;;;;;;;305.08;102.90;;;;;;;;;;4961493;28;20126;-70
2022/01/31 14:54:00;;;;;;;290.35;96.88;;;;;;;;;;4977584;28;20379;-71
2022/01/31 14:56:31;;;;;;;271.33;88.20;;;;;;;;;;4977573;28;20454;-69
2022/01/31 14:58:59;;;;;;;309.10;102.45;;;;;;;;;;4977574;28;20110;-70
2022/01/31 15:01:27;;;;;;;300.02;100.50;;;;;;;;;;4976869;28;20366;-69
2022/01/31 15:03:55;;;;;;;280.02;90.78;;;;;;;;;;4961280;28;20035;-70